sensor_id;sensor_type;location;lat;lon;timestamp;pressure;altitude;pressure_sealevel;temperature;humidity
68594;BME280;55563;52.416;13.548;2023-08-01T00:00:38;99741.44;;;18.16;100.00
68594;BME280;55563;52.416;13.548;2023-08-01T00:02:39;99737.75;;;18.08;100.00
68594;BME280;55563;52.416;13.548;2023-08-01T00:04:43;99727.78;;;18.05;100.00
68594;BME280;55563;52.416;13.548;2023-08-01T00:06:43;99734.31;;;18.08;100.00
68594;BME280;55563;52.416;13.548;2023-08-01T00:08:44;99729.44;;;18.10;100.00
68594;BME280;55563;52.416;13.548;2023-08-01T00:10:45;99725.78;;;18.02;100.00
68594;BME280;55563;52.416;13.548;2023-08-01T00:12:45;99721.66;;;17.93;100.00
68594;BME280;55563;52.416;13.548;2023-08-01T00:14:46;99718.34;;;17.96;100.00
68594;BME280;55563;52.416;13.548;2023-08-01T00:16:46;99720.22;;;17.95;100.00
68594;BME280;55563;52.416;13.548;2023-08-01T00:18:48;99725.63;;;17.86;100.00
68594;BME280;55563;52.416;13.548;2023-08-01T00:20:52;99713.53;;;17.89;100.00
68594;BME280;55563;52.416;13.548;2023-08-01T00:22:53;99722.41;;;17.81;100.00
68594;BME280;55563;52.416;13.548;2023-08-01T00:24:54;99711.75;;;17.81;100.00
68594;BME280;55563;52.416;13.548;2023-08-01T00:26:54;99711.06;;;17.72;100.00
68594;BME280;55563;52.416;13.548;2023-08-01T00:28:56;99711.59;;;17.65;100.00
68594;BME280;55563;52.416;13.548;2023-08-01T00:31:05;99702.78;;;17.73;100.00
68594;BME280;55563;52.416;13.548;2023-08-01T00:33:06;99705.09;;;17.75;100.00
68594;BME280;55563;52.416;13.548;2023-08-01T00:35:07;99697.75;;;17.60;100.00
68594;BME280;55563;52.416;13.548;2023-08-01T00:37:07;99703.75;;;17.48;100.00
68594;BME280;55563;52.416;13.548;2023-08-01T00:39:08;99706.75;;;17.47;100.00
68594;BME280;55563;52.416;13.548;2023-08-01T00:41:10;99704.16;;;17.59;100.00
68594;BME280;55563;52.416;13.548;2023-08-01T00:43:11;99705.31;;;17.49;100.00
68594;BME280;55563;52.416;13.548;2023-08-01T00:45:11;99697.78;;;17.51;100.00
68594;BME280;55563;52.416;13.548;2023-08-01T00:47:12;99695.78;;;17.48;100.00
68594;BME280;55563;52.416;13.548;2023-08-01T00:49:13;99684.47;;;17.39;100.00
68594;BME280;55563;52.416;13.548;2023-08-01T00:51:15;99691.19;;;17.36;100.00
68594;BME280;55563;52.416;13.548;2023-08-01T00:53:18;99672.75;;;17.19;100.00
68594;BME280;55563;52.416;13.548;2023-08-01T00:55:21;99667.13;;;17.21;100.00
68594;BME280;55563;52.416;13.548;2023-08-01T00:57:22;99667.19;;;17.33;100.00
68594;BME280;55563;52.416;13.548;2023-08-01T00:59:23;99670.59;;;17.33;100.00
68594;BME280;55563;52.416;13.548;2023-08-01T01:01:25;99662.25;;;17.23;100.00
68594;BME280;55563;52.416;13.548;2023-08-01T01:03:26;99659.94;;;17.21;100.00
68594;BME280;55563;52.416;13.548;2023-08-01T01:05:34;99660.06;;;17.25;100.00
68594;BME280;55563;52.416;13.548;2023-08-01T01:07:36;99647.69;;;17.29;100.00
68594;BME280;55563;52.416;13.548;2023-08-01T01:09:37;99651.13;;;17.29;100.00
68594;BME280;55563;52.416;13.548;2023-08-01T01:11:38;99654.75;;;17.25;100.00
68594;BME280;55563;52.416;13.548;2023-08-01T01:13:39;99651.31;;;17.24;100.00
68594;BME280;55563;52.416;13.548;2023-08-01T01:15:39;99655.75;;;17.20;100.00
68594;BME280;55563;52.416;13.548;2023-08-01T01:17:40;99646.09;;;17.16;100.00
68594;BME280;55563;52.416;13.548;2023-08-01T01:19:41;99647.78;;;17.20;100.00
68594;BME280;55563;52.416;13.548;2023-08-01T01:21:43;99644.00;;;17.21;100.00
68594;BME280;55563;52.416;13.548;2023-08-01T01:23:44;99639.59;;;17.25;100.00
68594;BME280;55563;52.416;13.548;2023-08-01T01:25:46;99635.28;;;17.21;100.00
68594;BME280;55563;52.416;13.548;2023-08-01T01:27:49;99613.25;;;17.20;100.00
68594;BME280;55563;52.416;13.548;2023-08-01T01:29:51;99618.75;;;17.15;100.00
68594;BME280;55563;52.416;13.548;2023-08-01T01:31:52;99605.38;;;17.12;100.00
68594;BME280;55563;52.416;13.548;2023-08-01T01:33:54;99600.19;;;16.94;100.00
68594;BME280;55563;52.416;13.548;2023-08-01T01:35:55;99594.38;;;17.01;100.00
68594;BME280;55563;52.416;13.548;2023-08-01T01:37:56;99594.41;;;17.13;100.00
68594;BME280;55563;52.416;13.548;2023-08-01T01:39:59;99585.91;;;17.20;100.00
68594;BME280;55563;52.416;13.548;2023-08-01T01:41:59;99583.25;;;17.20;100.00
68594;BME280;55563;52.416;13.548;2023-08-01T01:44:00;99586.84;;;17.03;100.00
68594;BME280;55563;52.416;13.548;2023-08-01T01:46:01;99589.09;;;17.13;100.00
68594;BME280;55563;52.416;13.548;2023-08-01T01:48:01;99577.56;;;17.09;100.00
68594;BME280;55563;52.416;13.548;2023-08-01T01:50:02;99574.81;;;17.06;100.00
68594;BME280;55563;52.416;13.548;2023-08-01T01:52:04;99574.47;;;17.07;100.00
68594;BME280;55563;52.416;13.548;2023-08-01T01:54:04;99575.00;;;17.00;100.00
68594;BME280;55563;52.416;13.548;2023-08-01T01:56:05;99582.31;;;17.04;100.00
68594;BME280;55563;52.416;13.548;2023-08-01T01:58:06;99578.38;;;16.89;100.00
68594;BME280;55563;52.416;13.548;2023-08-01T02:00:08;99576.09;;;16.99;100.00
68594;BME280;55563;52.416;13.548;2023-08-01T02:02:24;99567.25;;;16.95;100.00
68594;BME280;55563;52.416;13.548;2023-08-01T02:04:25;99564.06;;;17.02;100.00
68594;BME280;55563;52.416;13.548;2023-08-01T02:06:26;99560.91;;;16.88;100.00
68594;BME280;55563;52.416;13.548;2023-08-01T02:08:26;99546.31;;;16.94;100.00
68594;BME280;55563;52.416;13.548;2023-08-01T02:10:27;99542.25;;;16.96;100.00
68594;BME280;55563;52.416;13.548;2023-08-01T02:12:29;99533.31;;;17.01;100.00
68594;BME280;55563;52.416;13.548;2023-08-01T02:14:32;99536.38;;;17.03;100.00
68594;BME280;55563;52.416;13.548;2023-08-01T02:16:32;99528.78;;;17.02;100.00
68594;BME280;55563;52.416;13.548;2023-08-01T02:18:33;99531.75;;;17.00;100.00
68594;BME280;55563;52.416;13.548;2023-08-01T02:20:34;99528.09;;;16.92;100.00
68594;BME280;55563;52.416;13.548;2023-08-01T02:22:34;99523.22;;;16.94;100.00
68594;BME280;55563;52.416;13.548;2023-08-01T02:24:35;99516.03;;;16.95;100.00
68594;BME280;55563;52.416;13.548;2023-08-01T02:26:36;99521.25;;;17.04;100.00
68594;BME280;55563;52.416;13.548;2023-08-01T02:28:36;99521.91;;;17.00;100.00
68594;BME280;55563;52.416;13.548;2023-08-01T02:30:37;99514.94;;;16.96;100.00
68594;BME280;55563;52.416;13.548;2023-08-01T02:32:38;99513.63;;;17.02;100.00
68594;BME280;55563;52.416;13.548;2023-08-01T02:34:39;99518.47;;;17.00;100.00
68594;BME280;55563;52.416;13.548;2023-08-01T02:36:40;99512.69;;;16.98;100.00
68594;BME280;55563;52.416;13.548;2023-08-01T02:38:40;99501.34;;;16.97;100.00
68594;BME280;55563;52.416;13.548;2023-08-01T02:40:42;99498.44;;;17.02;100.00
68594;BME280;55563;52.416;13.548;2023-08-01T02:42:43;99497.22;;;17.00;100.00
68594;BME280;55563;52.416;13.548;2023-08-01T02:44:44;99506.28;;;16.99;100.00
68594;BME280;55563;52.416;13.548;2023-08-01T02:46:44;99501.34;;;16.97;100.00
68594;BME280;55563;52.416;13.548;2023-08-01T02:48:45;99500.22;;;16.98;100.00
68594;BME280;55563;52.416;13.548;2023-08-01T02:50:46;99501.97;;;16.94;100.00
68594;BME280;55563;52.416;13.548;2023-08-01T02:52:47;99496.78;;;16.98;100.00
68594;BME280;55563;52.416;13.548;2023-08-01T02:54:47;99501.19;;;16.94;100.00
68594;BME280;55563;52.416;13.548;2023-08-01T02:56:48;99506.28;;;16.87;100.00
68594;BME280;55563;52.416;13.548;2023-08-01T02:58:48;99495.44;;;16.92;100.00
68594;BME280;55563;52.416;13.548;2023-08-01T03:00:50;99494.78;;;16.95;100.00
68594;BME280;55563;52.416;13.548;2023-08-01T03:02:51;99495.25;;;16.97;100.00
68594;BME280;55563;52.416;13.548;2023-08-01T03:04:52;99485.47;;;16.89;100.00
68594;BME280;55563;52.416;13.548;2023-08-01T03:06:52;99486.03;;;16.94;100.00
68594;BME280;55563;52.416;13.548;2023-08-01T03:08:54;99476.97;;;16.83;100.00
68594;BME280;55563;52.416;13.548;2023-08-01T03:10:57;99469.44;;;16.85;100.00
68594;BME280;55563;52.416;13.548;2023-08-01T03:12:58;99459.81;;;16.93;100.00
68594;BME280;55563;52.416;13.548;2023-08-01T03:14:59;99460.59;;;16.93;100.00
68594;BME280;55563;52.416;13.548;2023-08-01T03:16:59;99471.09;;;16.90;100.00
68594;BME280;55563;52.416;13.548;2023-08-01T03:19:00;99460.16;;;16.91;100.00
68594;BME280;55563;52.416;13.548;2023-08-01T03:21:05;99468.03;;;16.88;100.00
68594;BME280;55563;52.416;13.548;2023-08-01T03:23:06;99461.72;;;16.92;100.00
68594;BME280;55563;52.416;13.548;2023-08-01T03:25:07;99457.16;;;16.93;100.00
68594;BME280;55563;52.416;13.548;2023-08-01T03:27:08;99447.44;;;16.85;100.00
68594;BME280;55563;52.416;13.548;2023-08-01T03:29:09;99449.88;;;16.90;100.00
68594;BME280;55563;52.416;13.548;2023-08-01T03:31:09;99447.31;;;16.93;100.00
68594;BME280;55563;52.416;13.548;2023-08-01T03:33:10;99441.59;;;16.91;100.00
68594;BME280;55563;52.416;13.548;2023-08-01T03:35:11;99439.25;;;16.90;100.00
68594;BME280;55563;52.416;13.548;2023-08-01T03:37:11;99445.22;;;16.87;100.00
68594;BME280;55563;52.416;13.548;2023-08-01T03:39:13;99441.69;;;16.83;100.00
68594;BME280;55563;52.416;13.548;2023-08-01T03:41:13;99439.81;;;16.83;100.00
68594;BME280;55563;52.416;13.548;2023-08-01T03:43:14;99433.72;;;16.83;100.00
68594;BME280;55563;52.416;13.548;2023-08-01T03:45:15;99427.84;;;16.77;100.00
68594;BME280;55563;52.416;13.548;2023-08-01T03:47:16;99433.47;;;16.76;100.00
68594;BME280;55563;52.416;13.548;2023-08-01T03:49:16;99433.25;;;16.81;100.00
68594;BME280;55563;52.416;13.548;2023-08-01T03:51:17;99435.72;;;16.86;100.00
68594;BME280;55563;52.416;13.548;2023-08-01T03:53:19;99438.25;;;16.82;100.00
68594;BME280;55563;52.416;13.548;2023-08-01T03:55:20;99438.78;;;16.76;100.00
68594;BME280;55563;52.416;13.548;2023-08-01T03:57:21;99426.97;;;16.73;100.00
68594;BME280;55563;52.416;13.548;2023-08-01T03:59:22;99423.31;;;16.78;100.00
68594;BME280;55563;52.416;13.548;2023-08-01T04:01:22;99423.09;;;16.83;100.00
68594;BME280;55563;52.416;13.548;2023-08-01T04:03:23;99423.09;;;16.83;100.00
68594;BME280;55563;52.416;13.548;2023-08-01T04:05:24;99430.41;;;16.86;100.00
68594;BME280;55563;52.416;13.548;2023-08-01T04:07:24;99431.59;;;16.88;100.00
68594;BME280;55563;52.416;13.548;2023-08-01T04:09:25;99422.22;;;16.91;100.00
68594;BME280;55563;52.416;13.548;2023-08-01T04:11:26;99423.31;;;16.90;100.00
68594;BME280;55563;52.416;13.548;2023-08-01T04:13:27;99426.44;;;16.92;100.00
68594;BME280;55563;52.416;13.548;2023-08-01T04:15:28;99418.78;;;16.90;100.00
68594;BME280;55563;52.416;13.548;2023-08-01T04:17:29;99410.94;;;16.94;100.00
68594;BME280;55563;52.416;13.548;2023-08-01T04:19:30;99413.38;;;16.99;100.00
68594;BME280;55563;52.416;13.548;2023-08-01T04:21:30;99412.28;;;17.00;100.00
68594;BME280;55563;52.416;13.548;2023-08-01T04:23:31;99411.53;;;17.12;100.00
68594;BME280;55563;52.416;13.548;2023-08-01T04:25:32;99403.56;;;17.24;100.00
68594;BME280;55563;52.416;13.548;2023-08-01T04:27:32;99405.09;;;17.37;100.00
68594;BME280;55563;52.416;13.548;2023-08-01T04:29:34;99401.78;;;17.40;100.00
68594;BME280;55563;52.416;13.548;2023-08-01T04:31:34;99407.44;;;17.38;100.00
68594;BME280;55563;52.416;13.548;2023-08-01T04:33:35;99401.34;;;17.38;100.00
68594;BME280;55563;52.416;13.548;2023-08-01T04:35:36;99406.75;;;17.41;100.00
68594;BME280;55563;52.416;13.548;2023-08-01T04:37:36;99403.31;;;17.41;100.00
68594;BME280;55563;52.416;13.548;2023-08-01T04:39:37;99398.69;;;17.38;100.00
68594;BME280;55563;52.416;13.548;2023-08-01T04:41:38;99406.97;;;17.36;100.00
68594;BME280;55563;52.416;13.548;2023-08-01T04:43:38;99388.72;;;17.35;100.00
68594;BME280;55563;52.416;13.548;2023-08-01T04:45:39;99391.03;;;17.36;100.00
68594;BME280;55563;52.416;13.548;2023-08-01T04:47:40;99393.91;;;17.31;100.00
68594;BME280;55563;52.416;13.548;2023-08-01T04:49:40;99392.38;;;17.30;100.00
68594;BME280;55563;52.416;13.548;2023-08-01T04:51:41;99386.63;;;17.28;100.00
68594;BME280;55563;52.416;13.548;2023-08-01T04:53:42;99379.09;;;17.30;100.00
68594;BME280;55563;52.416;13.548;2023-08-01T04:55:42;99388.53;;;17.16;100.00
68594;BME280;55563;52.416;13.548;2023-08-01T04:57:43;99378.09;;;17.23;100.00
68594;BME280;55563;52.416;13.548;2023-08-01T04:59:43;99373.78;;;17.18;100.00
68594;BME280;55563;52.416;13.548;2023-08-01T05:01:44;99379.97;;;17.22;100.00
68594;BME280;55563;52.416;13.548;2023-08-01T05:03:45;99383.09;;;17.24;100.00
68594;BME280;55563;52.416;13.548;2023-08-01T05:05:45;99374.25;;;17.20;100.00
68594;BME280;55563;52.416;13.548;2023-08-01T05:07:46;99374.34;;;17.24;100.00
68594;BME280;55563;52.416;13.548;2023-08-01T05:09:47;99369.81;;;17.24;100.00
68594;BME280;55563;52.416;13.548;2023-08-01T05:11:47;99360.88;;;17.17;100.00
68594;BME280;55563;52.416;13.548;2023-08-01T05:13:48;99361.84;;;17.12;100.00
68594;BME280;55563;52.416;13.548;2023-08-01T05:15:49;99359.72;;;17.18;100.00
68594;BME280;55563;52.416;13.548;2023-08-01T05:17:50;99357.22;;;17.21;100.00
68594;BME280;55563;52.416;13.548;2023-08-01T05:19:51;99353.88;;;17.24;100.00
68594;BME280;55563;52.416;13.548;2023-08-01T05:21:51;99358.31;;;17.20;100.00
68594;BME280;55563;52.416;13.548;2023-08-01T05:23:52;99352.53;;;17.18;100.00
68594;BME280;55563;52.416;13.548;2023-08-01T05:25:53;99350.13;;;17.25;100.00
68594;BME280;55563;52.416;13.548;2023-08-01T05:27:53;99343.16;;;17.21;100.00
68594;BME280;55563;52.416;13.548;2023-08-01T05:29:54;99346.22;;;17.23;100.00
68594;BME280;55563;52.416;13.548;2023-08-01T05:31:54;99336.94;;;17.29;100.00
68594;BME280;55563;52.416;13.548;2023-08-01T05:33:55;99346.47;;;17.30;100.00
68594;BME280;55563;52.416;13.548;2023-08-01T05:35:56;99330.75;;;17.25;100.00
68594;BME280;55563;52.416;13.548;2023-08-01T05:37:56;99336.50;;;17.27;100.00
68594;BME280;55563;52.416;13.548;2023-08-01T05:39:57;99338.03;;;17.28;100.00
68594;BME280;55563;52.416;13.548;2023-08-01T05:41:58;99335.47;;;17.31;100.00
68594;BME280;55563;52.416;13.548;2023-08-01T05:43:58;99330.94;;;17.32;100.00
68594;BME280;55563;52.416;13.548;2023-08-01T05:45:59;99328.97;;;17.29;100.00
68594;BME280;55563;52.416;13.548;2023-08-01T05:48:01;99329.75;;;17.29;100.00
68594;BME280;55563;52.416;13.548;2023-08-01T05:50:02;99337.72;;;17.29;100.00
68594;BME280;55563;52.416;13.548;2023-08-01T05:52:04;99331.41;;;17.34;100.00
68594;BME280;55563;52.416;13.548;2023-08-01T05:54:05;99321.78;;;17.29;100.00
68594;BME280;55563;52.416;13.548;2023-08-01T05:56:06;99321.34;;;17.27;100.00
68594;BME280;55563;52.416;13.548;2023-08-01T05:58:06;99322.97;;;17.32;100.00
68594;BME280;55563;52.416;13.548;2023-08-01T06:00:07;99328.97;;;17.29;100.00
68594;BME280;55563;52.416;13.548;2023-08-01T06:02:28;99335.63;;;17.35;100.00
68594;BME280;55563;52.416;13.548;2023-08-01T06:04:29;99324.31;;;17.38;100.00
68594;BME280;55563;52.416;13.548;2023-08-01T06:06:30;99323.53;;;17.37;100.00
68594;BME280;55563;52.416;13.548;2023-08-01T06:08:30;99335.47;;;17.31;100.00
68594;BME280;55563;52.416;13.548;2023-08-01T06:10:31;99325.53;;;17.40;100.00
68594;BME280;55563;52.416;13.548;2023-08-01T06:12:32;99326.88;;;17.34;100.00
68594;BME280;55563;52.416;13.548;2023-08-01T06:14:32;99323.53;;;17.37;100.00
68594;BME280;55563;52.416;13.548;2023-08-01T06:16:33;99336.16;;;17.40;100.00
68594;BME280;55563;52.416;13.548;2023-08-01T06:18:34;99335.38;;;17.40;100.00
68594;BME280;55563;52.416;13.548;2023-08-01T06:20:34;99330.63;;;17.33;100.00
68594;BME280;55563;52.416;13.548;2023-08-01T06:22:35;99332.97;;;17.35;100.00
68594;BME280;55563;52.416;13.548;2023-08-01T06:24:36;99336.50;;;17.39;100.00
68594;BME280;55563;52.416;13.548;2023-08-01T06:26:36;99333.16;;;17.42;100.00
68594;BME280;55563;52.416;13.548;2023-08-01T06:28:37;99330.41;;;17.38;100.00
68594;BME280;55563;52.416;13.548;2023-08-01T06:30:38;99323.97;;;17.39;100.00
68594;BME280;55563;52.416;13.548;2023-08-01T06:32:38;99321.31;;;17.39;100.00
68594;BME280;55563;52.416;13.548;2023-08-01T06:34:39;99320.31;;;17.44;100.00
68594;BME280;55563;52.416;13.548;2023-08-01T06:36:40;99318.09;;;17.46;100.00
68594;BME280;55563;52.416;13.548;2023-08-01T06:38:40;99309.00;;;17.47;100.00
68594;BME280;55563;52.416;13.548;2023-08-01T06:40:41;99312.44;;;17.48;100.00
68594;BME280;55563;52.416;13.548;2023-08-01T06:42:42;99310.56;;;17.48;100.00
68594;BME280;55563;52.416;13.548;2023-08-01T06:44:43;99305.78;;;17.54;100.00
68594;BME280;55563;52.416;13.548;2023-08-01T06:46:44;99303.03;;;17.50;100.00
68594;BME280;55563;52.416;13.548;2023-08-01T06:48:44;99309.09;;;17.51;100.00
68594;BME280;55563;52.416;13.548;2023-08-01T06:50:45;99315.75;;;17.57;100.00
68594;BME280;55563;52.416;13.548;2023-08-01T06:52:46;99306.13;;;17.52;100.00
68594;BME280;55563;52.416;13.548;2023-08-01T06:54:46;99308.88;;;17.56;100.00
68594;BME280;55563;52.416;13.548;2023-08-01T06:56:47;99310.00;;;17.55;100.00
68594;BME280;55563;52.416;13.548;2023-08-01T06:58:48;99318.75;;;17.55;100.00
68594;BME280;55563;52.416;13.548;2023-08-01T07:00:48;99311.97;;;17.58;100.00
68594;BME280;55563;52.416;13.548;2023-08-01T07:02:49;99308.25;;;17.59;100.00
68594;BME280;55563;52.416;13.548;2023-08-01T07:04:50;99312.75;;;17.58;100.00
68594;BME280;55563;52.416;13.548;2023-08-01T07:06:51;99305.34;;;17.52;100.00
68594;BME280;55563;52.416;13.548;2023-08-01T07:08:51;99310.00;;;17.55;100.00
68594;BME280;55563;52.416;13.548;2023-08-01T07:10:52;99303.72;;;17.59;100.00
68594;BME280;55563;52.416;13.548;2023-08-01T07:12:53;99309.66;;;17.56;100.00
68594;BME280;55563;52.416;13.548;2023-08-01T07:14:54;99311.97;;;17.58;100.00
68594;BME280;55563;52.416;13.548;2023-08-01T07:16:54;99313.84;;;17.57;100.00
68594;BME280;55563;52.416;13.548;2023-08-01T07:18:55;99309.66;;;17.56;100.00
68594;BME280;55563;52.416;13.548;2023-08-01T07:21:01;99292.19;;;17.55;100.00
68594;BME280;55563;52.416;13.548;2023-08-01T07:23:02;99308.13;;;17.55;100.00
68594;BME280;55563;52.416;13.548;2023-08-01T07:25:02;99302.13;;;17.58;100.00
68594;BME280;55563;52.416;13.548;2023-08-01T07:27:03;99310.22;;;17.62;100.00
68594;BME280;55563;52.416;13.548;2023-08-01T07:29:04;99308.88;;;17.68;100.00
68594;BME280;55563;52.416;13.548;2023-08-01T07:31:06;99303.56;;;17.68;100.00
68594;BME280;55563;52.416;13.548;2023-08-01T07:33:07;99296.38;;;17.68;100.00
68594;BME280;55563;52.416;13.548;2023-08-01T07:35:08;99296.13;;;17.73;100.00
68594;BME280;55563;52.416;13.548;2023-08-01T07:37:08;99292.47;;;17.78;100.00
68594;BME280;55563;52.416;13.548;2023-08-01T07:39:09;99291.84;;;17.84;100.00
68594;BME280;55563;52.416;13.548;2023-08-01T07:41:10;99288.63;;;17.91;100.00
68594;BME280;55563;52.416;13.548;2023-08-01T07:43:11;99278.84;;;17.95;100.00
68594;BME280;55563;52.416;13.548;2023-08-01T07:45:12;99271.66;;;17.96;100.00
68594;BME280;55563;52.416;13.548;2023-08-01T07:47:12;99265.75;;;18.02;100.00
68594;BME280;55563;52.416;13.548;2023-08-01T07:49:13;99261.38;;;18.10;100.00
68594;BME280;55563;52.416;13.548;2023-08-01T07:51:14;99277.94;;;18.19;100.00
68594;BME280;55563;52.416;13.548;2023-08-01T07:53:15;99281.59;;;18.26;100.00
68594;BME280;55563;52.416;13.548;2023-08-01T07:55:16;99284.66;;;18.28;100.00
68594;BME280;55563;52.416;13.548;2023-08-01T07:57:18;99288.94;;;18.33;100.00
68594;BME280;55563;52.416;13.548;2023-08-01T07:59:19;99288.63;;;18.35;100.00
68594;BME280;55563;52.416;13.548;2023-08-01T08:01:20;99282.78;;;18.45;100.00
68594;BME280;55563;52.416;13.548;2023-08-01T08:03:21;99275.22;;;18.47;100.00
68594;BME280;55563;52.416;13.548;2023-08-01T08:05:23;99274.31;;;18.55;100.00
68594;BME280;55563;52.416;13.548;2023-08-01T08:07:24;99277.31;;;18.53;100.00
68594;BME280;55563;52.416;13.548;2023-08-01T08:09:25;99272.78;;;18.54;100.00
68594;BME280;55563;52.416;13.548;2023-08-01T08:11:25;99270.97;;;18.58;100.00
68594;BME280;55563;52.416;13.548;2023-08-01T08:13:26;99280.75;;;18.54;100.00
68594;BME280;55563;52.416;13.548;2023-08-01T08:15:27;99270.78;;;18.51;100.00
68594;BME280;55563;52.416;13.548;2023-08-01T08:17:30;99266.34;;;18.55;100.00
68594;BME280;55563;52.416;13.548;2023-08-01T08:19:31;99269.41;;;18.57;100.00
68594;BME280;55563;52.416;13.548;2023-08-01T08:21:31;99269.06;;;18.58;100.00
68594;BME280;55563;52.416;13.548;2023-08-01T08:23:32;99263.16;;;18.65;100.00
68594;BME280;55563;52.416;13.548;2023-08-01T08:25:33;99267.19;;;18.59;100.00
68594;BME280;55563;52.416;13.548;2023-08-01T08:27:34;99261.34;;;18.69;100.00
68594;BME280;55563;52.416;13.548;2023-08-01T08:29:34;99267.00;;;18.83;100.00
68594;BME280;55563;52.416;13.548;2023-08-01T08:31:35;99259.53;;;18.89;100.00
68594;BME280;55563;52.416;13.548;2023-08-01T08:33:36;99254.91;;;19.05;100.00
68594;BME280;55563;52.416;13.548;2023-08-01T08:35:36;99254.94;;;19.24;100.00
68594;BME280;55563;52.416;13.548;2023-08-01T08:37:37;99251.44;;;19.39;100.00
68594;BME280;55563;52.416;13.548;2023-08-01T08:39:38;99249.44;;;19.52;100.00
68594;BME280;55563;52.416;13.548;2023-08-01T08:41:45;99247.06;;;19.66;100.00
68594;BME280;55563;52.416;13.548;2023-08-01T08:43:47;99244.38;;;19.85;100.00
68594;BME280;55563;52.416;13.548;2023-08-01T08:45:48;99245.91;;;19.86;100.00
68594;BME280;55563;52.416;13.548;2023-08-01T08:47:52;99247.09;;;19.89;100.00
68594;BME280;55563;52.416;13.548;2023-08-01T08:49:55;99237.69;;;19.95;100.00
68594;BME280;55563;52.416;13.548;2023-08-01T08:51:58;99238.72;;;19.90;100.00
68594;BME280;55563;52.416;13.548;2023-08-01T08:54:00;99238.44;;;19.95;100.00
68594;BME280;55563;52.416;13.548;2023-08-01T08:56:02;99250.66;;;19.96;100.00
68594;BME280;55563;52.416;13.548;2023-08-01T08:58:03;99246.81;;;19.94;100.00
68594;BME280;55563;52.416;13.548;2023-08-01T09:00:05;99249.63;;;19.82;100.00
68594;BME280;55563;52.416;13.548;2023-08-01T09:02:06;99246.38;;;19.92;100.00
68594;BME280;55563;52.416;13.548;2023-08-01T09:04:07;99236.50;;;19.92;100.00
68594;BME280;55563;52.416;13.548;2023-08-01T09:06:12;99235.66;;;19.88;100.00
68594;BME280;55563;52.416;13.548;2023-08-01T09:08:18;99242.94;;;19.91;100.00
68594;BME280;55563;52.416;13.548;2023-08-01T09:10:20;99235.84;;;19.99;100.00
68594;BME280;55563;52.416;13.548;2023-08-01T09:12:21;99247.06;;;20.08;100.00
68594;BME280;55563;52.416;13.548;2023-08-01T09:14:22;99237.69;;;20.18;100.00
68594;BME280;55563;52.416;13.548;2023-08-01T09:16:23;99239.34;;;20.26;100.00
68594;BME280;55563;52.416;13.548;2023-08-01T09:18:24;99241.75;;;20.31;100.00
68594;BME280;55563;52.416;13.548;2023-08-01T09:20:25;99236.72;;;20.29;100.00
68594;BME280;55563;52.416;13.548;2023-08-01T09:22:25;99228.06;;;20.32;100.00
68594;BME280;55563;52.416;13.548;2023-08-01T09:24:26;99223.38;;;20.29;100.00
68594;BME280;55563;52.416;13.548;2023-08-01T09:26:27;99218.69;;;20.42;100.00
68594;BME280;55563;52.416;13.548;2023-08-01T09:28:30;99219.19;;;20.51;100.00
68594;BME280;55563;52.416;13.548;2023-08-01T09:30:31;99211.56;;;20.76;100.00
68594;BME280;55563;52.416;13.548;2023-08-01T09:32:32;99219.19;;;21.04;100.00
68594;BME280;55563;52.416;13.548;2023-08-01T09:34:32;99216.56;;;21.11;100.00
68594;BME280;55563;52.416;13.548;2023-08-01T09:36:33;99211.66;;;21.13;100.00
68594;BME280;55563;52.416;13.548;2023-08-01T09:38:37;99218.44;;;21.07;100.00
68594;BME280;55563;52.416;13.548;2023-08-01T09:40:39;99221.06;;;21.03;100.00
68594;BME280;55563;52.416;13.548;2023-08-01T09:42:41;99218.41;;;21.03;100.00
68594;BME280;55563;52.416;13.548;2023-08-01T09:44:45;99221.06;;;21.03;100.00
68594;BME280;55563;52.416;13.548;2023-08-01T09:47:04;99223.94;;;20.91;100.00
68594;BME280;55563;52.416;13.548;2023-08-01T09:49:07;99221.19;;;20.84;100.00
68594;BME280;55563;52.416;13.548;2023-08-01T09:51:10;99224.59;;;20.81;100.00
68594;BME280;55563;52.416;13.548;2023-08-01T09:53:11;99220.44;;;20.57;100.00
68594;BME280;55563;52.416;13.548;2023-08-01T09:55:12;99236.03;;;20.55;100.00
68594;BME280;55563;52.416;13.548;2023-08-01T09:57:13;99236.06;;;20.32;100.00
68594;BME280;55563;52.416;13.548;2023-08-01T09:59:19;99228.97;;;20.21;100.00
68594;BME280;55563;52.416;13.548;2023-08-01T10:01:22;99229.09;;;20.28;100.00
68594;BME280;55563;52.416;13.548;2023-08-01T10:03:23;99227.13;;;20.25;100.00
68594;BME280;55563;52.416;13.548;2023-08-01T10:05:23;99224.16;;;20.30;100.00
68594;BME280;55563;52.416;13.548;2023-08-01T10:07:28;99231.78;;;20.28;100.00
68594;BME280;55563;52.416;13.548;2023-08-01T10:09:30;99220.28;;;20.24;100.00
68594;BME280;55563;52.416;13.548;2023-08-01T10:11:34;99225.78;;;20.34;100.00
68594;BME280;55563;52.416;13.548;2023-08-01T10:13:35;99227.47;;;20.42;100.00
68594;BME280;55563;52.416;13.548;2023-08-01T10:15:36;99226.13;;;20.56;100.00
68594;BME280;55563;52.416;13.548;2023-08-01T10:17:37;99216.22;;;20.56;100.00
68594;BME280;55563;52.416;13.548;2023-08-01T10:19:39;99229.16;;;20.54;100.00
68594;BME280;55563;52.416;13.548;2023-08-01T10:21:42;99234.88;;;20.53;100.00
68594;BME280;55563;52.416;13.548;2023-08-01T10:23:44;99221.09;;;20.28;100.00
68594;BME280;55563;52.416;13.548;2023-08-01T10:25:45;99221.50;;;20.30;100.00